createdAt,value
2019-04-29T00:02:13.410Z,5.77
2019-04-29T00:05:04.569Z,5.70
2019-04-29T00:07:54.663Z,5.67
2019-04-29T00:10:45.171Z,6.77
2019-04-29T00:13:35.499Z,5.77
2019-04-29T00:16:32.631Z,6.93
2019-04-29T00:19:39.415Z,6.40
2019-04-29T00:22:29.124Z,5.60
2019-04-29T00:25:19.137Z,6.60
2019-04-29T00:28:08.901Z,6.80
2019-04-29T00:30:58.840Z,6.90
2019-04-29T00:33:48.555Z,6.43
2019-04-29T00:36:51.789Z,6.20
2019-04-29T00:39:59.339Z,6.40
2019-04-29T00:42:55.011Z,6.50
2019-04-29T00:45:45.006Z,6.63
2019-04-29T00:48:34.813Z,7.07
2019-04-29T00:51:25.200Z,6.57
2019-04-29T00:54:39.251Z,6.37
2019-04-29T00:57:29.062Z,7.53
2019-04-29T01:00:28.313Z,7.40
2019-04-29T01:03:18.181Z,6.40
2019-04-29T01:06:08.155Z,6.77
2019-04-29T01:08:58.373Z,7.23
2019-04-29T01:11:48.573Z,7.40
2019-04-29T01:14:38.356Z,8.93
2019-04-29T01:17:28.383Z,8.03
2019-04-29T01:20:18.553Z,8.23
2019-04-29T01:23:08.744Z,7.80
2019-04-29T01:26:02.473Z,7.90
2019-04-29T01:28:54.561Z,7.97
2019-04-29T01:31:45.195Z,9.97
2019-04-29T01:34:41.737Z,9.10
2019-04-29T01:37:37.241Z,9.03
2019-04-29T01:40:52.177Z,8.63
2019-04-29T01:44:01.666Z,8.10
2019-04-29T01:46:51.507Z,8.27
2019-04-29T01:49:41.661Z,8.83
2019-04-29T01:52:31.556Z,9.03
2019-04-29T01:55:21.310Z,7.97
2019-04-29T01:58:11.519Z,8.13
2019-04-29T02:01:01.497Z,8.40
2019-04-29T02:03:51.531Z,8.00
2019-04-29T02:06:41.352Z,9.17
2019-04-29T02:09:39.269Z,9.67
2019-04-29T02:12:29.563Z,7.40
2019-04-29T02:15:19.248Z,8.90
2019-04-29T02:18:09.246Z,9.70
2019-04-29T02:20:58.714Z,9.30
2019-04-29T02:24:04.391Z,8.17
2019-04-29T02:26:53.767Z,8.03
2019-04-29T02:29:43.853Z,8.30
2019-04-29T02:32:33.808Z,8.80
2019-04-29T02:35:23.703Z,9.80
2019-04-29T02:38:22.206Z,9.27
2019-04-29T02:41:19.440Z,8.20
2019-04-29T02:44:11.116Z,8.40
2019-04-29T02:47:00.894Z,8.37
2019-04-29T02:49:50.615Z,7.70
2019-04-29T02:52:40.395Z,8.67
2019-04-29T02:55:40.618Z,9.40
2019-04-29T02:58:36.872Z,7.73
2019-04-29T03:01:39.459Z,8.97
2019-04-29T03:04:32.023Z,9.63
2019-04-29T03:07:22.208Z,8.10
2019-04-29T03:10:13.362Z,7.60
2019-04-29T03:13:03.136Z,8.83
2019-04-29T03:15:52.623Z,10.00
2019-04-29T03:18:47.459Z,8.33
2019-04-29T03:21:45.782Z,8.73
2019-04-29T03:24:36.242Z,8.30
2019-04-29T03:27:26.308Z,7.63
2019-04-29T03:30:16.657Z,8.60
2019-04-29T03:33:06.853Z,9.00
2019-04-29T03:35:57.095Z,7.70
2019-04-29T03:38:47.074Z,6.80
2019-04-29T03:41:36.914Z,7.00
2019-04-29T03:44:26.577Z,7.90
2019-04-29T03:47:18.665Z,7.50
2019-04-29T03:50:08.179Z,9.47
2019-04-29T03:52:57.936Z,7.77
2019-04-29T03:55:47.705Z,7.80
2019-04-29T03:58:37.498Z,8.67
2019-04-29T04:01:32.975Z,8.20
2019-04-29T04:04:40.432Z,8.53
2019-04-29T04:07:48.894Z,7.97
2019-04-29T04:10:38.820Z,7.87
2019-04-29T04:13:28.510Z,8.00
2019-04-29T04:16:27.873Z,7.20
2019-04-29T04:19:18.540Z,7.63
2019-04-29T04:22:08.897Z,8.40
2019-04-29T04:24:59.132Z,7.87
2019-04-29T04:27:49.271Z,13.33
2019-04-29T04:30:39.101Z,10.00
2019-04-29T04:33:29.159Z,8.67
2019-04-29T04:36:19.255Z,8.87
2019-04-29T04:39:10.271Z,7.80
2019-04-29T04:42:00.247Z,8.57
2019-04-29T04:44:50.627Z,9.67
2019-04-29T04:47:40.851Z,8.57
2019-04-29T04:50:30.658Z,9.37
2019-04-29T04:53:20.657Z,8.97
2019-04-29T04:56:10.571Z,9.80
2019-04-29T04:59:00.306Z,8.60
2019-04-29T05:01:50.259Z,9.30
2019-04-29T05:04:40.428Z,9.67
2019-04-29T05:07:30.334Z,8.27
2019-04-29T05:10:20.557Z,10.27
2019-04-29T05:13:10.210Z,8.80
2019-04-29T05:15:59.888Z,9.83
2019-04-29T05:18:49.768Z,8.90
2019-04-29T05:21:39.722Z,9.23
2019-04-29T05:24:30.207Z,10.00
2019-04-29T05:27:19.623Z,9.60
2019-04-29T05:30:10.489Z,10.43
2019-04-29T05:33:00.824Z,9.87
2019-04-29T05:36:21.819Z,9.53
2019-04-29T05:39:19.766Z,10.37
2019-04-29T05:42:15.991Z,9.50
2019-04-29T05:45:11.649Z,9.57
2019-04-29T05:48:10.169Z,10.17
2019-04-29T05:51:29.727Z,9.73
2019-04-29T05:54:19.680Z,9.67
2019-04-29T05:57:09.231Z,7.87
2019-04-29T05:59:59.032Z,9.57
2019-04-29T06:02:48.968Z,8.70
2019-04-29T06:05:38.653Z,9.53
2019-04-29T06:08:28.484Z,9.40
2019-04-29T06:11:18.931Z,9.83
2019-04-29T06:14:09.370Z,8.87
2019-04-29T06:17:02.864Z,8.80
2019-04-29T06:19:51.431Z,8.53
2019-04-29T06:22:41.980Z,8.40
2019-04-29T06:25:32.985Z,7.83
2019-04-29T06:28:26.575Z,8.83
2019-04-29T06:31:14.456Z,8.47
2019-04-29T06:34:05.342Z,8.87
2019-04-29T06:36:56.669Z,8.50
2019-04-29T06:39:46.507Z,7.03
2019-04-29T06:42:36.445Z,7.20
2019-04-29T06:45:26.715Z,8.67
2019-04-29T06:48:16.319Z,8.30
2019-04-29T06:51:06.134Z,8.00
2019-04-29T06:53:55.954Z,8.13
2019-04-29T06:56:46.030Z,8.67
2019-04-29T06:59:36.058Z,8.43
2019-04-29T07:02:25.769Z,9.33
2019-04-29T07:05:15.922Z,8.33
2019-04-29T07:08:05.732Z,7.93
2019-04-29T07:11:00.694Z,8.33
2019-04-29T07:13:47.978Z,6.67
2019-04-29T07:16:38.067Z,8.20
2019-04-29T07:19:28.377Z,6.70
2019-04-29T07:22:20.888Z,8.03
2019-04-29T07:25:09.585Z,7.80
2019-04-29T07:27:59.370Z,8.00
2019-04-29T07:31:00.996Z,7.93
2019-04-29T07:33:39.915Z,8.17
2019-04-29T07:36:29.637Z,9.63
2019-04-29T07:39:19.534Z,8.73
2019-04-29T07:42:09.494Z,9.70
2019-04-29T07:45:17.939Z,8.97
2019-04-29T07:48:08.049Z,8.77
2019-04-29T07:50:59.488Z,8.63
2019-04-29T07:53:49.412Z,8.20
2019-04-29T07:56:42.665Z,9.23
2019-04-29T07:59:33.764Z,9.07
2019-04-29T08:02:22.665Z,9.27
2019-04-29T08:05:12.564Z,9.60
2019-04-29T08:08:03.170Z,8.53
2019-04-29T08:10:56.611Z,9.63
2019-04-29T08:13:47.990Z,8.27
2019-04-29T08:16:37.985Z,9.43
2019-04-29T08:19:29.479Z,10.13
2019-04-29T08:22:22.939Z,9.90
2019-04-29T08:25:11.610Z,8.90
2019-04-29T08:28:01.438Z,10.23
2019-04-29T08:30:51.124Z,9.57
2019-04-29T08:33:42.402Z,10.87
2019-04-29T08:36:32.425Z,10.13
2019-04-29T08:39:25.009Z,9.90
2019-04-29T08:42:18.056Z,10.33
2019-04-29T08:45:34.740Z,11.40
2019-04-29T08:48:23.025Z,10.73
2019-04-29T08:51:12.874Z,9.73
2019-04-29T08:54:02.974Z,10.53
2019-04-29T08:57:02.797Z,10.33
2019-04-29T08:59:45.144Z,10.10
2019-04-29T09:02:35.847Z,10.60
2019-04-29T09:05:25.753Z,9.00
2019-04-29T09:08:15.814Z,10.57
2019-04-29T09:11:08.084Z,11.50
2019-04-29T09:13:57.545Z,11.47
2019-04-29T09:16:47.419Z,11.73
2019-04-29T09:19:39.384Z,11.23
2019-04-29T09:22:30.609Z,11.10
2019-04-29T09:26:01.712Z,10.60
2019-04-29T09:28:40.308Z,10.27
2019-04-29T09:31:30.088Z,13.20
2019-04-29T09:34:24.534Z,12.07
2019-04-29T09:37:11.661Z,12.13
2019-04-29T09:40:02.446Z,10.97
2019-04-29T09:43:27.113Z,12.70
2019-04-29T09:46:21.822Z,11.70
2019-04-29T09:49:11.262Z,12.60
2019-04-29T09:52:01.020Z,12.73
2019-04-29T09:54:50.785Z,11.43
2019-04-29T09:57:40.614Z,11.33
2019-04-29T10:00:42.015Z,11.73
2019-04-29T10:03:56.364Z,9.93
2019-04-29T10:06:50.284Z,12.03
2019-04-29T10:09:40.081Z,12.10
2019-04-29T10:12:29.563Z,11.27
2019-04-29T10:15:22.637Z,9.97
2019-04-29T10:18:19.471Z,10.87
2019-04-29T10:21:11.296Z,13.10
2019-04-29T10:24:01.150Z,13.27
2019-04-29T10:26:51.168Z,11.80
2019-04-29T10:29:43.129Z,11.93
2019-04-29T10:32:33.332Z,12.60
2019-04-29T10:35:23.133Z,12.20
2019-04-29T10:38:13.379Z,12.67
2019-04-29T10:41:09.482Z,12.57
2019-04-29T10:44:12.982Z,13.20
2019-04-29T10:47:19.481Z,12.40
2019-04-29T10:50:20.257Z,13.30
2019-04-29T10:53:15.594Z,12.43
2019-04-29T10:56:05.827Z,13.90
2019-04-29T10:58:55.563Z,11.40
2019-04-29T11:02:24.270Z,12.27
2019-04-29T11:05:30.826Z,12.20
2019-04-29T11:08:39.760Z,10.60
2019-04-29T11:11:34.400Z,11.07
2019-04-29T11:14:24.905Z,10.00
2019-04-29T11:17:16.857Z,9.87
2019-04-29T11:20:11.182Z,10.00
2019-04-29T11:23:09.121Z,8.50
2019-04-29T11:26:22.849Z,9.37
2019-04-29T11:29:13.171Z,9.40
2019-04-29T11:32:05.656Z,9.07
2019-04-29T11:35:28.426Z,9.20
2019-04-29T11:38:20.207Z,9.50
2019-04-29T11:41:12.228Z,8.00
2019-04-29T11:44:02.140Z,7.67
2019-04-29T11:46:52.451Z,8.03
2019-04-29T11:49:54.606Z,8.67
2019-04-29T11:52:44.427Z,8.23
2019-04-29T11:55:34.322Z,7.90
2019-04-29T11:58:30.571Z,8.33
2019-04-29T12:01:46.752Z,8.67
2019-04-29T12:04:36.286Z,8.70
2019-04-29T12:07:31.868Z,8.10
2019-04-29T12:10:17.426Z,8.80
2019-04-29T12:13:10.493Z,9.03
2019-04-29T12:16:24.605Z,9.03
2019-04-29T12:19:22.607Z,9.50
2019-04-29T12:22:26.878Z,10.87
2019-04-29T12:25:05.021Z,10.00
2019-04-29T12:28:01.410Z,9.20
2019-04-29T12:30:50.384Z,9.80
2019-04-29T12:33:46.444Z,10.30
2019-04-29T12:36:55.042Z,10.70
2019-04-29T12:39:46.441Z,10.60
2019-04-29T12:42:55.378Z,10.07
2019-04-29T12:45:55.974Z,10.50
2019-04-29T12:48:46.095Z,11.40
2019-04-29T12:51:35.713Z,11.10
2019-04-29T12:54:25.549Z,10.83
2019-04-29T12:57:18.927Z,10.97
2019-04-29T13:00:10.490Z,12.53
2019-04-29T13:03:06.847Z,12.00
2019-04-29T13:06:23.878Z,11.27
2019-04-29T13:09:19.431Z,11.40
2019-04-29T13:12:19.073Z,11.20
2019-04-29T13:15:22.282Z,11.50
2019-04-29T13:18:23.344Z,11.13
2019-04-29T13:21:10.458Z,12.63
2019-04-29T13:24:13.591Z,13.80
2019-04-29T13:26:52.060Z,13.37
2019-04-29T13:29:42.165Z,15.07
2019-04-29T13:32:35.598Z,15.70
2019-04-29T13:35:24.641Z,16.33
2019-04-29T13:38:14.826Z,16.20
2019-04-29T13:41:13.467Z,16.37
2019-04-29T13:44:05.033Z,14.40
2019-04-29T13:47:15.416Z,14.63
2019-04-29T13:50:18.747Z,16.13
2019-04-29T13:53:01.490Z,15.90
2019-04-29T13:56:10.394Z,15.93
2019-04-29T13:58:44.337Z,17.30
2019-04-29T14:02:01.588Z,17.77
2019-04-29T14:04:55.939Z,18.43
2019-04-29T14:07:43.736Z,16.83
2019-04-29T14:10:33.921Z,20.00
2019-04-29T14:13:23.649Z,18.43
2019-04-29T14:16:13.588Z,18.57
2019-04-29T14:19:04.165Z,19.37
2019-04-29T14:21:54.596Z,18.20
2019-04-29T14:24:46.810Z,20.47
2019-04-29T14:27:36.447Z,18.50
2019-04-29T14:30:38.018Z,19.93
2019-04-29T14:33:24.194Z,18.57
2019-04-29T14:36:11.373Z,19.37
2019-04-29T14:39:01.372Z,18.50
2019-04-29T14:41:57.071Z,18.53
2019-04-29T14:44:58.186Z,19.33
2019-04-29T14:48:12.370Z,20.87
2019-04-29T14:51:02.475Z,22.13
2019-04-29T14:53:56.759Z,21.33
2019-04-29T14:56:43.365Z,20.40
2019-04-29T14:59:32.663Z,21.90
2019-04-29T15:02:24.975Z,22.53
2019-04-29T15:05:14.969Z,21.50
2019-04-29T15:08:04.816Z,23.83
2019-04-29T15:10:54.407Z,22.87
2019-04-29T15:13:47.169Z,24.97
2019-04-29T15:16:44.834Z,26.10
2019-04-29T15:19:56.704Z,25.13
2019-04-29T15:22:46.923Z,24.40
2019-04-29T15:25:36.224Z,27.30
2019-04-29T15:28:26.216Z,23.30
2019-04-29T15:31:17.232Z,26.23
2019-04-29T15:34:08.817Z,28.47
2019-04-29T15:36:58.181Z,25.33
2019-04-29T15:39:48.736Z,27.47
2019-04-29T15:42:42.680Z,25.63
2019-04-29T15:45:32.316Z,26.80
2019-04-29T15:48:22.631Z,25.33
2019-04-29T15:51:13.897Z,24.70
2019-04-29T15:54:03.579Z,24.07
2019-04-29T15:56:53.454Z,23.17
2019-04-29T15:59:48.923Z,24.20
2019-04-29T16:02:35.915Z,24.30
2019-04-29T16:05:56.061Z,24.23
2019-04-29T16:08:45.177Z,25.67
2019-04-29T16:11:52.930Z,24.50
2019-04-29T16:14:43.027Z,23.77
2019-04-29T16:17:37.955Z,24.43
2019-04-29T16:20:24.474Z,22.67
2019-04-29T16:23:14.140Z,26.30
2019-04-29T16:26:04.124Z,26.50
2019-04-29T16:28:53.622Z,27.03
2019-04-29T16:31:44.357Z,25.93
2019-04-29T16:34:44.469Z,25.70
2019-04-29T16:37:31.747Z,26.07
2019-04-29T16:40:20.091Z,25.20
2019-04-29T16:43:27.384Z,26.60
2019-04-29T16:46:16.248Z,25.83
2019-04-29T16:49:06.321Z,25.33
2019-04-29T16:51:56.031Z,27.60
2019-04-29T16:54:46.316Z,25.40
2019-04-29T16:57:36.360Z,25.97
2019-04-29T17:00:28.772Z,25.83
2019-04-29T17:03:18.993Z,27.10
2019-04-29T17:06:09.597Z,26.17
2019-04-29T17:09:23.209Z,26.03
2019-04-29T17:12:13.244Z,24.53
2019-04-29T17:15:10.731Z,25.03
2019-04-29T17:17:54.516Z,24.37
2019-04-29T17:20:44.278Z,26.83
2019-04-29T17:23:34.171Z,26.40
2019-04-29T17:26:27.188Z,25.53
2019-04-29T17:29:49.331Z,25.37
2019-04-29T17:33:08.371Z,25.10
2019-04-29T17:35:59.509Z,26.90
2019-04-29T17:38:49.058Z,27.27
2019-04-29T17:41:39.388Z,25.40
2019-04-29T17:44:38.062Z,26.37
2019-04-29T17:47:49.815Z,26.70
2019-04-29T17:50:48.025Z,23.30
2019-04-29T17:53:42.033Z,26.67
2019-04-29T17:56:42.453Z,28.87
2019-04-29T18:00:05.041Z,26.80
2019-04-29T18:03:12.046Z,27.77
2019-04-29T18:06:24.387Z,26.20
2019-04-29T18:09:29.652Z,30.10
2019-04-29T18:12:22.242Z,30.43
2019-04-29T18:15:17.642Z,28.60
2019-04-29T18:18:09.898Z,33.73
2019-04-29T18:21:17.497Z,30.23
2019-04-29T18:24:15.368Z,30.63
2019-04-29T18:27:08.928Z,30.87
2019-04-29T18:29:58.045Z,31.53
2019-04-29T18:32:47.795Z,30.30
2019-04-29T18:35:38.068Z,35.30
2019-04-29T18:38:28.957Z,37.30
2019-04-29T18:41:24.570Z,32.57
2019-04-29T18:44:18.951Z,34.10
2019-04-29T18:47:02.164Z,35.03
2019-04-29T18:49:52.476Z,33.50
2019-04-29T18:52:42.796Z,34.13
2019-04-29T18:55:32.743Z,32.70
2019-04-29T18:58:25.014Z,33.93
2019-04-29T19:01:14.989Z,32.47
2019-04-29T19:04:21.990Z,35.57
2019-04-29T19:07:11.858Z,33.10
2019-04-29T19:10:02.057Z,34.77
2019-04-29T19:12:59.757Z,31.67
2019-04-29T19:15:48.503Z,34.60
2019-04-29T19:18:36.878Z,31.87
2019-04-29T19:21:30.481Z,34.37
2019-04-29T19:24:18.426Z,35.27
2019-04-29T19:27:10.019Z,30.87
2019-04-29T19:30:01.111Z,31.60
2019-04-29T19:32:53.882Z,32.67
2019-04-29T19:35:42.572Z,29.27
2019-04-29T19:38:32.471Z,31.23
2019-04-29T19:41:22.017Z,33.00
2019-04-29T19:44:12.251Z,33.20
2019-04-29T19:47:02.168Z,32.93
2019-04-29T19:49:52.407Z,31.23
2019-04-29T19:52:42.258Z,32.53
2019-04-29T19:55:33.144Z,33.77
2019-04-29T19:58:29.464Z,33.50
2019-04-29T20:01:26.184Z,32.17
2019-04-29T20:04:22.475Z,32.20
2019-04-29T20:07:12.158Z,30.67
2019-04-29T20:10:05.726Z,32.93
2019-04-29T20:12:56.796Z,34.23
2019-04-29T20:16:12.390Z,32.17
2019-04-29T20:19:12.232Z,34.00
2019-04-29T20:21:56.131Z,31.43
2019-04-29T20:24:49.747Z,32.37
2019-04-29T20:27:38.162Z,32.60
2019-04-29T20:30:28.698Z,32.30
2019-04-29T20:33:18.570Z,31.40
2019-04-29T20:36:08.288Z,33.70
2019-04-29T20:38:58.361Z,31.60
2019-04-29T20:41:48.993Z,31.10
2019-04-29T20:44:44.481Z,31.30
2019-04-29T20:47:37.880Z,33.70
2019-04-29T20:50:22.106Z,31.40
2019-04-29T20:53:30.762Z,33.13
2019-04-29T20:56:25.267Z,32.43
2019-04-29T20:59:15.324Z,29.83
2019-04-29T21:02:12.583Z,31.17
2019-04-29T21:04:58.448Z,30.80
2019-04-29T21:07:49.205Z,32.73
2019-04-29T21:10:43.053Z,31.60
2019-04-29T21:13:39.622Z,32.70
2019-04-29T21:16:34.797Z,31.70
2019-04-29T21:19:24.862Z,32.10
2019-04-29T21:22:22.020Z,32.53
2019-04-29T21:25:07.028Z,29.17
2019-04-29T21:27:58.187Z,28.50
2019-04-29T21:30:48.204Z,30.70
2019-04-29T21:33:38.101Z,28.53
2019-04-29T21:36:47.014Z,28.10
2019-04-29T21:39:56.044Z,30.03
2019-04-29T21:42:52.295Z,28.33
2019-04-29T21:45:44.969Z,29.27
2019-04-29T21:48:35.114Z,26.30
2019-04-29T21:51:25.575Z,27.53
2019-04-29T21:54:15.738Z,27.77
2019-04-29T21:57:05.857Z,27.33
2019-04-29T21:59:55.856Z,25.07
2019-04-29T22:02:49.076Z,27.30
2019-04-29T22:05:37.651Z,26.20
2019-04-29T22:08:30.097Z,28.20
2019-04-29T22:11:18.930Z,27.20
2019-04-29T22:14:14.071Z,26.67
2019-04-29T22:17:02.187Z,24.60
2019-04-29T22:19:51.404Z,24.70
2019-04-29T22:22:41.746Z,24.30
2019-04-29T22:25:31.932Z,24.70
2019-04-29T22:28:22.138Z,23.63
2019-04-29T22:31:12.285Z,24.80
2019-04-29T22:34:02.219Z,24.10
2019-04-29T22:36:52.643Z,21.90
2019-04-29T22:39:43.694Z,22.50
2019-04-29T22:42:51.442Z,19.43
2019-04-29T22:45:41.036Z,20.30
2019-04-29T22:48:30.983Z,19.10
2019-04-29T22:51:21.209Z,18.77
2019-04-29T22:54:11.127Z,17.73
2019-04-29T22:57:01.634Z,20.00
2019-04-29T22:59:54.020Z,16.77
2019-04-29T23:02:42.811Z,16.87
2019-04-29T23:05:33.087Z,15.13
2019-04-29T23:08:22.715Z,14.47
2019-04-29T23:11:12.591Z,14.77
2019-04-29T23:14:06.650Z,14.00
2019-04-29T23:16:55.591Z,12.80
2019-04-29T23:19:50.751Z,12.30
2019-04-29T23:22:47.514Z,13.33
2019-04-29T23:25:59.865Z,12.00
2019-04-29T23:28:48.441Z,11.67
2019-04-29T23:31:38.469Z,11.23
2019-04-29T23:34:29.580Z,10.03
2019-04-29T23:37:23.866Z,11.60
2019-04-29T23:40:11.504Z,10.30
2019-04-29T23:43:01.372Z,10.60
2019-04-29T23:45:51.828Z,9.87
2019-04-29T23:48:42.376Z,9.53
2019-04-29T23:51:34.264Z,8.70
2019-04-29T23:54:25.200Z,11.67
2019-04-29T23:57:25.520Z,11.00
